Armony — 5IM517 — position and weather

sailwx.info

Track history (hours):
 
Tides and Currents Weather Stations Pressure Air Temp Water Temp Dewpoint Dewpoint Depression Visibility Wind Speed Wind Dir Waves Ship Positions

Armony

Last reported at 2014-Aug-29 21:30 UTC. Time now 2014-Sep-03 04:38 UTC.
Position N 40°58' E 028°58'.

Length 70 m; draft 2.5 m.

Type: Ship. MMSI: 677041700.

Date/timePositionNaut miles runAvg speedWind from/ knotsBaromVisibWave heightAir tempDewpointWater temp
2014-Aug-29 21:30N 40°58' E 028°58'2 1.8
2014-Aug-29 20:25N 40°58' E 028°56'0 0.0
2014-Aug-29 19:13N 40°58' E 028°56'0 0.0
2014-Aug-29 17:19N 40°58' E 028°56'0 0.0
2014-Aug-29 16:31N 40°58' E 028°56'6 4.5
2014-Aug-29 15:07N 40°53' E 029°01'4 7.4
2014-Aug-29 14:32N 40°49' E 029°03'8 8.1
2014-Aug-29 13:33N 40°45' E 029°13'9 8.2
2014-Aug-29 12:31N 40°45' E 029°24'  
2014-Aug-27 04:17N 40°45' E 029°33'5 6.4
2014-Aug-27 03:33N 40°44' E 029°27'8 7.6
2014-Aug-27 02:33N 40°45' E 029°17'8 7.7
2014-Aug-27 01:33N 40°48' E 029°08'8 7.8
2014-Aug-27 00:33N 40°51' E 028°58'7 7.2
2014-Aug-26 23:33N 40°58' E 028°58'  
2014-Aug-22 07:24N 41°15' E 029°10'19 6.7
2014-Aug-22 04:33N 40°58' E 028°60'6 6.0
2014-Aug-22 03:32N 40°52' E 029°02'6 6.6
2014-Aug-22 02:34N 40°52' E 029°10'0 0.1
2014-Aug-22 01:33N 40°52' E 029°10'0 0.0
2014-Aug-22 00:33N 40°52' E 029°10'0 0.0
2014-Aug-21 23:33N 40°52' E 029°10'0 0.0
2014-Aug-21 22:33N 40°52' E 029°10'0 0.0
2014-Aug-21 21:33N 40°52' E 029°10'0 0.0
2014-Aug-21 20:33N 40°52' E 029°10'0 0.0
2014-Aug-21 19:33N 40°52' E 029°10'0 0.0
2014-Aug-21 18:33N 40°52' E 029°10'0 0.0
2014-Aug-21 17:33N 40°52' E 029°10'2 2.2
2014-Aug-21 16:33N 40°50' E 029°11'8 7.6
2014-Aug-21 15:33N 40°45' E 029°20'8 7.4
2014-Aug-21 14:32N 40°45' E 029°30'  
Track history (hours):
 
Tides and Currents Weather Stations Pressure Air Temp Water Temp Dewpoint Dewpoint Depression Visibility Wind Speed Wind Dir Waves Ship Positions

Armony

Last reported at 2014-Aug-29 21:30 UTC. Time now 2014-Sep-03 04:38 UTC.
Position N 40°58' E 028°58'.

Length 70 m; draft 2.5 m.

Type: Ship. MMSI: 677041700.

Date/timePositionNaut miles runAvg speedWind from/ knotsBaromVisibWave heightAir tempDewpointWater temp
2014-Aug-29 21:30N 40°58' E 028°58'2 1.8
2014-Aug-29 20:25N 40°58' E 028°56'0 0.0
2014-Aug-29 19:13N 40°58' E 028°56'0 0.0
2014-Aug-29 17:19N 40°58' E 028°56'0 0.0
2014-Aug-29 16:31N 40°58' E 028°56'6 4.5
2014-Aug-29 15:07N 40°53' E 029°01'4 7.4
2014-Aug-29 14:32N 40°49' E 029°03'8 8.1
2014-Aug-29 13:33N 40°45' E 029°13'9 8.2
2014-Aug-29 12:31N 40°45' E 029°24'  
2014-Aug-27 04:17N 40°45' E 029°33'5 6.4
2014-Aug-27 03:33N 40°44' E 029°27'8 7.6
2014-Aug-27 02:33N 40°45' E 029°17'8 7.7
2014-Aug-27 01:33N 40°48' E 029°08'8 7.8
2014-Aug-27 00:33N 40°51' E 028°58'7 7.2
2014-Aug-26 23:33N 40°58' E 028°58'  
2014-Aug-22 07:24N 41°15' E 029°10'19 6.7
2014-Aug-22 04:33N 40°58' E 028°60'6 6.0
2014-Aug-22 03:32N 40°52' E 029°02'6 6.6
2014-Aug-22 02:34N 40°52' E 029°10'0 0.1
2014-Aug-22 01:33N 40°52' E 029°10'0 0.0
2014-Aug-22 00:33N 40°52' E 029°10'0 0.0
2014-Aug-21 23:33N 40°52' E 029°10'0 0.0
2014-Aug-21 22:33N 40°52' E 029°10'0 0.0
2014-Aug-21 21:33N 40°52' E 029°10'0 0.0
2014-Aug-21 20:33N 40°52' E 029°10'0 0.0
2014-Aug-21 19:33N 40°52' E 029°10'0 0.0
2014-Aug-21 18:33N 40°52' E 029°10'0 0.0
2014-Aug-21 17:33N 40°52' E 029°10'2 2.2
2014-Aug-21 16:33N 40°50' E 029°11'8 7.6
2014-Aug-21 15:33N 40°45' E 029°20'8 7.4
2014-Aug-21 14:32N 40°45' E 029°30'  

Dump ship's entire track history